Time;durP1;ratioP1;P1;durP2;ratioP2;P2;SDS_P1;SDS_P2;PMS_P1;PMS_P2;Temp;Humidity;BMP_temperature;BMP_pressure;BME280_temperature;BME280_humidity;BME280_pressure;Samples;Min_cycle;Max_cycle;Signal;HPM_P1;HPM_P2
2022/10/18 00:04:20;;;;;;;;;;;16.00;99.90;;;;;;12543431;28;20300;-36
2022/10/18 00:10:23;;;;;;;;;;;16.00;99.90;;;;;;12540098;28;19940;-37
2022/10/18 00:16:25;;;;;;;;;;;16.00;99.90;;;;;;12531358;28;19929;-36
2022/10/18 00:22:27;;;;;;;;;;;15.90;99.90;;;;;;12551759;28;20019;-36
2022/10/18 00:28:29;;;;;;;;;;;15.90;99.90;;;;;;12536559;28;19925;-36
2022/10/18 00:34:31;;;;;;;;;;;15.90;99.90;;;;;;12554390;28;19936;-37
2022/10/18 00:40:33;;;;;;;;;;;16.00;99.90;;;;;;12542590;28;20403;-37
2022/10/18 00:46:36;;;;;;;;;;;16.00;99.90;;;;;;12561648;28;19932;-36
2022/10/18 00:52:41;;;;;;;;;;;16.10;99.90;;;;;;12536455;28;19925;-36
2022/10/18 00:58:43;;;;;;;;;;;16.00;99.90;;;;;;12521196;28;19931;-36
2022/10/18 01:04:45;;;;;;;;;;;15.90;99.90;;;;;;12556711;28;19936;-37
2022/10/18 01:11:08;;;;;;;;;;;15.90;99.90;;;;;;12552209;28;20403;-37
2022/10/18 01:17:13;;;;;;;;;;;15.90;99.90;;;;;;12540846;28;19990;-37
2022/10/18 01:23:25;;;;;;;;;;;15.80;99.90;;;;;;12547287;28;19978;-36
2022/10/18 01:29:46;;;;;;;;;;;15.80;99.90;;;;;;12547417;28;19924;-36
2022/10/18 01:35:50;;;;;;;;;;;15.80;99.90;;;;;;12556560;28;19929;-37
2022/10/18 01:41:53;;;;;;;;;;;15.80;99.90;;;;;;12548125;28;19939;-37
2022/10/18 01:47:55;;;;;;;;;;;15.80;99.90;;;;;;12551022;28;19990;-37
2022/10/18 01:53:57;;;;;;;;;;;15.90;99.90;;;;;;12552856;28;19935;-36
2022/10/18 02:00:02;;;;;;;;;;;15.90;99.90;;;;;;12544082;28;20408;-36
2022/10/18 02:06:07;;;;;;;;;;;15.90;99.90;;;;;;12540515;28;20019;-37
2022/10/18 02:12:11;;;;;;;;;;;15.90;99.90;;;;;;12534632;28;19925;-37
2022/10/18 02:18:33;;;;;;;;;;;15.90;99.90;;;;;;12536777;28;19932;-36
2022/10/18 02:24:40;;;;;;;;;;;15.90;99.90;;;;;;12543028;28;19931;-36
2022/10/18 02:30:50;;;;;;;;;;;15.90;99.90;;;;;;12552491;28;19933;-37
2022/10/18 02:36:57;;;;;;;;;;;15.90;99.90;;;;;;12556287;28;20103;-36
2022/10/18 02:42:59;;;;;;;;;;;15.90;99.90;;;;;;12545578;28;19962;-37
2022/10/18 02:49:01;;;;;;;;;;;15.90;99.90;;;;;;12545912;28;19947;-38
2022/10/18 02:55:03;;;;;;;;;;;15.80;99.90;;;;;;12552112;28;19929;-36
2022/10/18 03:01:05;;;;;;;;;;;15.80;99.90;;;;;;12540675;28;19936;-36
2022/10/18 03:07:07;;;;;;;;;;;15.70;99.90;;;;;;12560493;28;19929;-36
2022/10/18 03:13:09;;;;;;;;;;;15.70;99.90;;;;;;12555657;28;20296;-37
2022/10/18 03:19:10;;;;;;;;;;;15.70;99.90;;;;;;12549615;28;19928;-37
2022/10/18 03:25:12;;;;;;;;;;;15.60;99.90;;;;;;12554618;28;19933;-36
2022/10/18 03:31:14;;;;;;;;;;;15.60;99.90;;;;;;12544481;28;19932;-38
2022/10/18 03:37:16;;;;;;;;;;;15.60;99.90;;;;;;12536924;28;20031;-36
2022/10/18 03:43:18;;;;;;;;;;;15.40;99.90;;;;;;12554761;28;19932;-37
2022/10/18 03:49:20;;;;;;;;;;;15.50;99.90;;;;;;12561440;28;19924;-36
2022/10/18 03:55:22;;;;;;;;;;;15.50;99.90;;;;;;12550884;28;20014;-37
2022/10/18 04:01:23;;;;;;;;;;;15.40;99.90;;;;;;12531374;28;19924;-36
2022/10/18 04:07:25;;;;;;;;;;;15.40;99.90;;;;;;12560095;28;20376;-36
2022/10/18 04:13:27;;;;;;;;;;;15.40;99.90;;;;;;12554306;28;19925;-36
2022/10/18 04:19:29;;;;;;;;;;;15.40;99.90;;;;;;12542501;28;19925;-37
2022/10/18 04:25:31;;;;;;;;;;;15.40;99.90;;;;;;12552509;28;20425;-36
2022/10/18 04:31:33;;;;;;;;;;;15.40;99.90;;;;;;12549355;28;19986;-36
2022/10/18 04:37:34;;;;;;;;;;;15.40;99.90;;;;;;12546412;28;19952;-37
2022/10/18 04:43:36;;;;;;;;;;;15.40;99.90;;;;;;12546865;28;19925;-36
2022/10/18 04:49:38;;;;;;;;;;;15.40;99.90;;;;;;12551232;28;20396;-36
2022/10/18 04:55:42;;;;;;;;;;;15.30;99.90;;;;;;12562092;28;19940;-37
2022/10/18 05:01:44;;;;;;;;;;;15.40;99.90;;;;;;12545152;28;19991;-36
2022/10/18 05:07:46;;;;;;;;;;;15.40;99.90;;;;;;12544528;28;19929;-37
2022/10/18 05:13:48;;;;;;;;;;;15.30;99.90;;;;;;12537276;28;19925;-37
2022/10/18 05:19:51;;;;;;;;;;;15.30;99.90;;;;;;12551670;28;20292;-37
2022/10/18 05:25:53;;;;;;;;;;;15.30;99.90;;;;;;12526957;28;19932;-36
2022/10/18 05:31:55;;;;;;;;;;;15.30;99.90;;;;;;12542724;28;19935;-37
2022/10/18 05:37:57;;;;;;;;;;;15.30;99.90;;;;;;12552559;28;20038;-37
2022/10/18 05:44:03;;;;;;;;;;;15.30;99.90;;;;;;12558797;28;19950;-36
2022/10/18 05:50:05;;;;;;;;;;;15.30;99.90;;;;;;12547371;28;20396;-36
2022/10/18 05:56:07;;;;;;;;;;;15.30;99.90;;;;;;12528701;28;19928;-37
2022/10/18 06:02:12;;;;;;;;;;;15.20;99.90;;;;;;12552274;28;19925;-36
2022/10/18 06:08:14;;;;;;;;;;;15.20;99.90;;;;;;12542493;28;20261;-36
2022/10/18 06:14:15;;;;;;;;;;;15.20;99.90;;;;;;12550898;28;19929;-36
2022/10/18 06:20:18;;;;;;;;;;;15.20;99.90;;;;;;12561248;28;19924;-36
2022/10/18 06:26:21;;;;;;;;;;;15.20;99.90;;;;;;12554250;28;20319;-36
2022/10/18 06:32:22;;;;;;;;;;;15.20;99.90;;;;;;12556668;28;19928;-36
2022/10/18 06:38:24;;;;;;;;;;;15.20;99.90;;;;;;12540044;28;20400;-36
2022/10/18 06:44:26;;;;;;;;;;;15.10;99.90;;;;;;12541959;28;19933;-36
2022/10/18 06:50:28;;;;;;;;;;;15.00;99.90;;;;;;12567905;28;19929;-36
2022/10/18 06:56:30;;;;;;;;;;;15.00;99.90;;;;;;12550689;28;19929;-36
2022/10/18 07:02:32;;;;;;;;;;;15.10;99.90;;;;;;12550178;28;20019;-36
2022/10/18 07:08:35;;;;;;;;;;;15.00;99.90;;;;;;12547556;28;19940;-36
2022/10/18 07:14:37;;;;;;;;;;;15.00;99.90;;;;;;12544901;28;19950;-37
2022/10/18 07:20:39;;;;;;;;;;;15.00;99.90;;;;;;12554990;28;19982;-36
2022/10/18 07:26:41;;;;;;;;;;;15.00;99.90;;;;;;12534457;28;19928;-39
2022/10/18 07:32:43;;;;;;;;;;;15.10;99.90;;;;;;12557441;28;19929;-36
2022/10/18 07:38:45;;;;;;;;;;;15.10;99.90;;;;;;12537066;28;19928;-36
2022/10/18 07:44:47;;;;;;;;;;;15.20;99.90;;;;;;12549041;28;19929;-36
2022/10/18 07:50:49;;;;;;;;;;;15.30;99.90;;;;;;12553624;28;20389;-36
2022/10/18 07:56:51;;;;;;;;;;;15.30;99.90;;;;;;12555948;28;19942;-36
2022/10/18 08:02:57;;;;;;;;;;;15.30;99.90;;;;;;12555845;28;19932;-36
2022/10/18 08:08:59;;;;;;;;;;;15.20;99.90;;;;;;12538599;28;19933;-37
2022/10/18 08:15:01;;;;;;;;;;;15.30;99.90;;;;;;12541704;28;19928;-36
2022/10/18 08:21:04;;;;;;;;;;;15.20;99.90;;;;;;12566486;28;20018;-37
2022/10/18 08:27:06;;;;;;;;;;;15.20;99.90;;;;;;12555845;28;19929;-36
2022/10/18 08:33:08;;;;;;;;;;;15.30;99.90;;;;;;12551400;28;20450;-36
2022/10/18 08:39:10;;;;;;;;;;;15.20;99.90;;;;;;12545765;28;19924;-36
2022/10/18 08:45:12;;;;;;;;;;;15.30;99.90;;;;;;12518946;28;20411;-36
2022/10/18 08:51:38;;;;;;;;;;;15.20;99.90;;;;;;12553462;28;19974;-36
2022/10/18 08:57:40;;;;;;;;;;;15.40;99.90;;;;;;12544414;28;19929;-36
2022/10/18 09:03:42;;;;;;;;;;;15.40;99.90;;;;;;12538318;28;20523;-36
2022/10/18 09:09:47;;;;;;;;;;;15.40;99.90;;;;;;12549367;28;19929;-36
2022/10/18 09:15:49;;;;;;;;;;;15.60;99.90;;;;;;12548856;28;19924;-37
2022/10/18 09:21:57;;;;;;;;;;;15.70;99.90;;;;;;12540510;28;20304;-36
2022/10/18 09:28:22;;;;;;;;;;;15.70;99.90;;;;;;12546532;28;19924;-36
2022/10/18 09:34:38;;;;;;;;;;;15.80;99.90;;;;;;12536259;28;19935;-37
2022/10/18 09:41:10;;;;;;;;;;;15.80;99.90;;;;;;12552180;28;19924;-36
2022/10/18 09:47:15;;;;;;;;;;;15.80;99.90;;;;;;12480042;28;19925;-37
2022/10/18 09:53:25;;;;;;;;;;;15.70;99.90;;;;;;12544729;28;19925;-36
2022/10/18 09:59:33;;;;;;;;;;;15.70;99.90;;;;;;12535789;28;19933;-37
2022/10/18 10:05:35;;;;;;;;;;;15.70;99.90;;;;;;12545447;28;19926;-37
2022/10/18 10:11:44;;;;;;;;;;;15.80;99.90;;;;;;12547708;28;19982;-37
2022/10/18 10:17:54;;;;;;;;;;;15.90;99.90;;;;;;12525640;28;19925;-36
2022/10/18 10:23:57;;;;;;;;;;;15.90;99.90;;;;;;12548206;28;19972;-36
2022/10/18 10:30:01;;;;;;;;;;;16.00;99.90;;;;;;12547493;28;19931;-36
2022/10/18 10:36:18;;;;;;;;;;;16.10;99.90;;;;;;12549655;28;20433;-36
2022/10/18 10:42:19;;;;;;;;;;;16.60;99.90;;;;;;12554518;28;21519;-36
2022/10/18 10:48:22;;;;;;;;;;;16.60;99.90;;;;;;12555435;28;20296;-37
2022/10/18 10:54:25;;;;;;;;;;;16.50;99.90;;;;;;12559801;28;19974;-37
2022/10/18 11:00:47;;;;;;;;;;;16.40;99.90;;;;;;12555911;28;19995;-37
2022/10/18 11:07:13;;;;;;;;;;;16.30;99.90;;;;;;12563559;28;19932;-37
2022/10/18 11:13:23;;;;;;;;;;;16.30;99.90;;;;;;12548807;28;19928;-37
2022/10/18 11:19:35;;;;;;;;;;;16.30;99.90;;;;;;12562016;28;19931;-36
2022/10/18 11:25:43;;;;;;;;;;;16.90;99.90;;;;;;12557272;28;19924;-37
2022/10/18 11:32:10;;;;;;;;;;;17.10;99.90;;;;;;12564054;28;19925;-37
2022/10/18 11:38:11;;;;;;;;;;;17.70;99.90;;;;;;12539982;28;19939;-36
2022/10/18 11:44:21;;;;;;;;;;;18.10;99.90;;;;;;12552829;28;19928;-37
2022/10/18 11:50:25;;;;;;;;;;;18.30;99.90;;;;;;12565719;28;19979;-37
2022/10/18 11:56:29;;;;;;;;;;;18.40;99.90;;;;;;12554777;28;19925;-37
2022/10/18 12:02:37;;;;;;;;;;;18.10;99.90;;;;;;12562704;28;19932;-36
2022/10/18 12:08:47;;;;;;;;;;;17.90;99.90;;;;;;12558156;28;19936;-36
2022/10/18 12:14:51;;;;;;;;;;;18.00;99.90;;;;;;12553470;28;19968;-36
2022/10/18 12:20:54;;;;;;;;;;;18.60;99.90;;;;;;12557630;28;19960;-37
2022/10/18 12:26:57;;;;;;;;;;;18.70;99.90;;;;;;12551303;28;19928;-38
2022/10/18 12:33:11;;;;;;;;;;;18.80;99.90;;;;;;12549913;28;20419;-37
2022/10/18 12:39:36;;;;;;;;;;;18.50;99.90;;;;;;12559148;28;19928;-36
2022/10/18 12:45:56;;;;;;;;;;;18.40;99.90;;;;;;12550336;28;19983;-36
2022/10/18 12:52:03;;;;;;;;;;;18.40;99.90;;;;;;12551054;28;20031;-37
2022/10/18 12:58:14;;;;;;;;;;;18.50;99.90;;;;;;12536924;28;20070;-37
2022/10/18 13:04:31;;;;;;;;;;;18.40;99.90;;;;;;12549882;28;19925;-37
2022/10/18 13:10:35;;;;;;;;;;;18.20;99.90;;;;;;12552516;28;19940;-37
2022/10/18 13:16:44;;;;;;;;;;;18.40;99.90;;;;;;12558157;28;19924;-37
2022/10/18 13:22:51;;;;;;;;;;;18.40;99.90;;;;;;12553854;28;19928;-36
2022/10/18 13:29:12;;;;;;;;;;;18.30;99.90;;;;;;12561588;28;19928;-37
2022/10/18 13:35:32;;;;;;;;;;;18.30;99.90;;;;;;12547892;28;20269;-37
2022/10/18 13:41:40;;;;;;;;;;;18.00;99.90;;;;;;12549811;28;19936;-37
2022/10/18 13:47:42;;;;;;;;;;;17.80;99.90;;;;;;12550442;28;19943;-37
2022/10/18 13:53:51;;;;;;;;;;;17.60;99.90;;;;;;12536991;28;20358;-37
2022/10/18 14:00:12;;;;;;;;;;;17.70;99.90;;;;;;12554393;28;20284;-37
2022/10/18 14:06:24;;;;;;;;;;;17.60;99.90;;;;;;12538332;28;19925;-37
2022/10/18 14:12:29;;;;;;;;;;;17.60;99.90;;;;;;12546099;28;19932;-37
2022/10/18 14:18:33;;;;;;;;;;;17.40;99.90;;;;;;12551402;28;19925;-37
2022/10/18 14:24:37;;;;;;;;;;;17.40;99.90;;;;;;12557480;28;19928;-36
2022/10/18 14:30:58;;;;;;;;;;;17.40;99.90;;;;;;12544888;28;20330;-37
2022/10/18 14:37:00;;;;;;;;;;;17.40;99.90;;;;;;12559374;28;19947;-37
2022/10/18 14:43:12;;;;;;;;;;;17.30;99.90;;;;;;12550384;28;19933;-36
2022/10/18 14:49:15;;;;;;;;;;;17.20;99.90;;;;;;12545547;28;19981;-36
2022/10/18 14:55:21;;;;;;;;;;;17.20;99.90;;;;;;12550740;28;20762;-37
2022/10/18 15:01:26;;;;;;;;;;;17.20;99.90;;;;;;12558477;28;19932;-36
2022/10/18 15:07:29;;;;;;;;;;;17.10;99.90;;;;;;12568933;28;19925;-37
2022/10/18 15:13:31;;;;;;;;;;;16.90;99.90;;;;;;12559203;28;19936;-37
2022/10/18 15:19:35;;;;;;;;;;;16.90;99.90;;;;;;12555913;28;19931;-37
2022/10/18 15:25:36;;;;;;;;;;;16.90;99.90;;;;;;12553067;28;19925;-37
2022/10/18 15:31:41;;;;;;;;;;;16.70;99.90;;;;;;12558504;28;20341;-38
2022/10/18 15:37:45;;;;;;;;;;;16.60;99.90;;;;;;12534392;28;19925;-37
2022/10/18 15:43:46;;;;;;;;;;;16.50;99.90;;;;;;12547241;28;19929;-37
2022/10/18 15:49:59;;;;;;;;;;;16.50;99.90;;;;;;12537516;28;20289;-37
2022/10/18 15:56:03;;;;;;;;;;;16.30;99.90;;;;;;12543150;28;19928;-37
2022/10/18 16:02:10;;;;;;;;;;;16.00;99.90;;;;;;12551715;28;19933;-37
2022/10/18 16:08:17;;;;;;;;;;;15.90;99.90;;;;;;12555060;28;19925;-37
2022/10/18 16:14:19;;;;;;;;;;;15.80;99.90;;;;;;12548260;28;19929;-36
2022/10/18 16:20:22;;;;;;;;;;;15.70;99.90;;;;;;12549894;28;19925;-37
2022/10/18 16:26:25;;;;;;;;;;;15.50;99.90;;;;;;12554665;28;19928;-37
2022/10/18 16:32:26;;;;;;;;;;;15.20;99.90;;;;;;12556625;28;20066;-37
2022/10/18 16:38:35;;;;;;;;;;;15.20;99.90;;;;;;12561895;28;19931;-37
2022/10/18 16:44:37;;;;;;;;;;;15.00;99.90;;;;;;12537475;28;19924;-37
2022/10/18 16:50:39;;;;;;;;;;;15.10;99.90;;;;;;12550012;28;19933;-36
2022/10/18 16:56:42;;;;;;;;;;;15.10;99.90;;;;;;12506286;28;20462;-36
2022/10/18 17:02:44;;;;;;;;;;;14.70;99.90;;;;;;12546196;28;19924;-36
2022/10/18 17:08:46;;;;;;;;;;;14.80;99.90;;;;;;12563566;28;20258;-36
2022/10/18 17:14:47;;;;;;;;;;;14.80;99.90;;;;;;12538485;28;20400;-37
2022/10/18 17:20:49;;;;;;;;;;;14.70;99.90;;;;;;12547292;28;20378;-36
2022/10/18 17:26:51;;;;;;;;;;;14.80;99.90;;;;;;12557206;28;20007;-36
2022/10/18 17:32:53;;;;;;;;;;;14.60;99.90;;;;;;12550118;28;20011;-36
2022/10/18 17:38:56;;;;;;;;;;;14.40;99.90;;;;;;12546576;28;19925;-36
2022/10/18 17:44:58;;;;;;;;;;;14.20;99.90;;;;;;12551680;28;20312;-36
2022/10/18 17:51:04;;;;;;;;;;;14.00;99.90;;;;;;12558766;28;19924;-36
2022/10/18 17:57:06;;;;;;;;;;;13.90;99.90;;;;;;12566503;28;19929;-37
2022/10/18 18:03:08;;;;;;;;;;;13.90;99.90;;;;;;12564750;28;19925;-36
2022/10/18 18:09:13;;;;;;;;;;;13.80;99.90;;;;;;12561019;28;19928;-36
2022/10/18 18:15:15;;;;;;;;;;;13.60;99.90;;;;;;12560694;28;19936;-36
2022/10/18 18:21:18;;;;;;;;;;;13.40;99.90;;;;;;12556012;28;19932;-36
2022/10/18 18:27:20;;;;;;;;;;;13.40;99.90;;;;;;12559815;28;20381;-37
2022/10/18 18:33:21;;;;;;;;;;;13.30;99.90;;;;;;12554776;28;19929;-36
2022/10/18 18:39:24;;;;;;;;;;;13.30;99.90;;;;;;12549616;28;20006;-36
2022/10/18 18:45:26;;;;;;;;;;;13.20;99.90;;;;;;12542606;28;19932;-36
2022/10/18 18:51:28;;;;;;;;;;;13.10;99.90;;;;;;12542115;28;19928;-36
2022/10/18 18:57:29;;;;;;;;;;;12.90;99.90;;;;;;12560527;28;19935;-36
2022/10/18 19:03:32;;;;;;;;;;;12.90;99.90;;;;;;12546372;28;19974;-36
2022/10/18 19:09:37;;;;;;;;;;;12.70;99.90;;;;;;12555125;28;19932;-36
2022/10/18 19:15:38;;;;;;;;;;;12.60;99.90;;;;;;12536672;28;20023;-36
2022/10/18 19:21:43;;;;;;;;;;;12.50;99.90;;;;;;12554103;28;19932;-37
2022/10/18 19:27:44;;;;;;;;;;;12.50;99.90;;;;;;12549135;28;19935;-36
2022/10/18 19:33:47;;;;;;;;;;;12.30;99.90;;;;;;12558903;28;19951;-36
2022/10/18 19:40:00;;;;;;;;;;;12.30;99.90;;;;;;12549979;28;20043;-36
2022/10/18 19:46:03;;;;;;;;;;;12.20;99.90;;;;;;12559530;28;19928;-37
2022/10/18 19:52:05;;;;;;;;;;;12.30;99.90;;;;;;12558090;28;19929;-36
2022/10/18 19:58:06;;;;;;;;;;;12.20;99.90;;;;;;12551354;28;20083;-37
2022/10/18 20:04:09;;;;;;;;;;;12.10;99.90;;;;;;12557534;28;20384;-36
2022/10/18 20:10:11;;;;;;;;;;;12.10;99.90;;;;;;12558219;28;19952;-37
2022/10/18 20:16:13;;;;;;;;;;;12.10;99.90;;;;;;12530835;28;20365;-37
2022/10/18 20:22:15;;;;;;;;;;;12.10;99.90;;;;;;12558153;28;19929;-37
2022/10/18 20:28:16;;;;;;;;;;;12.20;99.90;;;;;;12552282;28;19925;-37
2022/10/18 20:34:23;;;;;;;;;;;12.40;99.90;;;;;;12544695;28;20277;-37
2022/10/18 20:40:25;;;;;;;;;;;12.60;99.90;;;;;;12552967;28;19935;-37
2022/10/18 20:46:31;;;;;;;;;;;12.60;99.90;;;;;;12556261;28;19924;-36
2022/10/18 20:52:33;;;;;;;;;;;12.60;99.90;;;;;;12555343;28;19932;-36
2022/10/18 20:58:36;;;;;;;;;;;12.40;99.90;;;;;;12553883;28;20391;-37
2022/10/18 21:04:37;;;;;;;;;;;12.10;99.90;;;;;;12548720;28;20377;-36
2022/10/18 21:10:43;;;;;;;;;;;12.20;99.90;;;;;;12535556;28;19924;-36
2022/10/18 21:16:45;;;;;;;;;;;12.20;99.90;;;;;;12557632;28;19933;-36
2022/10/18 21:22:47;;;;;;;;;;;12.00;99.90;;;;;;12541846;28;19929;-37
2022/10/18 21:28:49;;;;;;;;;;;12.00;99.90;;;;;;12532478;28;19928;-36
2022/10/18 21:34:51;;;;;;;;;;;11.90;99.90;;;;;;12543190;28;19932;-37
2022/10/18 21:40:53;;;;;;;;;;;11.80;99.90;;;;;;12543804;28;19935;-36
2022/10/18 21:46:55;;;;;;;;;;;11.80;99.90;;;;;;12549864;28;19936;-36
2022/10/18 21:52:57;;;;;;;;;;;11.90;99.90;;;;;;12538835;28;19925;-36
2022/10/18 21:58:59;;;;;;;;;;;11.80;99.90;;;;;;12541702;28;20379;-36
2022/10/18 22:05:01;;;;;;;;;;;11.70;99.90;;;;;;12538390;28;20679;-36
2022/10/18 22:11:06;;;;;;;;;;;11.60;99.90;;;;;;12547035;28;19933;-36
2022/10/18 22:17:07;;;;;;;;;;;11.60;99.90;;;;;;12550973;28;19924;-36
2022/10/18 22:23:11;;;;;;;;;;;11.70;99.90;;;;;;12547410;28;19932;-36
2022/10/18 22:29:17;;;;;;;;;;;11.60;99.90;;;;;;12543577;28;19929;-36
2022/10/18 22:35:19;;;;;;;;;;;11.40;99.90;;;;;;12540343;28;20019;-36
2022/10/18 22:41:21;;;;;;;;;;;11.30;99.90;;;;;;12531464;28;19977;-37
2022/10/18 22:47:23;;;;;;;;;;;11.20;99.90;;;;;;12537083;28;19924;-36
2022/10/18 22:53:25;;;;;;;;;;;11.20;99.90;;;;;;12556787;28;20452;-37
2022/10/18 22:59:27;;;;;;;;;;;11.30;99.90;;;;;;12567683;28;19999;-37
2022/10/18 23:05:29;;;;;;;;;;;11.20;99.90;;;;;;12559700;28;20062;-36
2022/10/18 23:11:31;;;;;;;;;;;11.20;99.90;;;;;;12562837;28;20318;-37
2022/10/18 23:17:32;;;;;;;;;;;11.20;99.90;;;;;;12560097;28;19932;-36
2022/10/18 23:23:35;;;;;;;;;;;11.30;99.90;;;;;;12549281;28;19928;-36
2022/10/18 23:29:37;;;;;;;;;;;11.40;99.90;;;;;;12561892;28;19925;-37
2022/10/18 23:35:39;;;;;;;;;;;11.50;99.90;;;;;;12555549;28;20239;-36
2022/10/18 23:41:41;;;;;;;;;;;11.30;99.90;;;;;;12549621;28;19982;-36
2022/10/18 23:47:42;;;;;;;;;;;11.30;99.90;;;;;;12560367;28;19931;-36
2022/10/18 23:53:44;;;;;;;;;;;11.40;99.90;;;;;;12550700;28;19928;-36
2022/10/18 23:59:46;;;;;;;;;;;11.40;99.90;;;;;;12553499;28;20393;-36
